Time;durP1;ratioP1;P1;durP2;ratioP2;P2;SDS_P1;SDS_P2;PMS_P1;PMS_P2;Temp;Humidity;BMP_temperature;BMP_pressure;BME280_temperature;BME280_humidity;BME280_pressure;Samples;Min_cycle;Max_cycle;Signal;HPM_P1;HPM_P2
2022/12/08 00:01:17;;;;;;;18.95;11.30;;;7.70;61.50;;;;;;5072011;28;20098;-73
2022/12/08 00:03:43;;;;;;;16.90;10.15;;;7.70;61.40;;;;;;5054579;28;20051;-74
2022/12/08 00:09:23;;;;;;;16.42;10.00;;;7.70;61.60;;;;;;5072013;28;20130;-74
2022/12/08 00:12:01;;;;;;;20.00;11.60;;;7.70;61.50;;;;;;5053413;28;20170;-74
2022/12/08 00:14:30;;;;;;;18.05;11.45;;;7.70;61.60;;;;;;5070016;28;20025;-73
2022/12/08 00:16:57;;;;;;;20.05;11.60;;;7.70;61.60;;;;;;5053499;28;20353;-74
2022/12/08 00:19:23;;;;;;;17.33;10.85;;;7.70;61.50;;;;;;5053464;28;20464;-74
2022/12/08 00:21:50;;;;;;;17.42;11.30;;;7.70;61.50;;;;;;5054147;28;20040;-74
2022/12/08 00:24:17;;;;;;;17.50;11.43;;;7.70;61.50;;;;;;5051550;28;20432;-74
2022/12/08 00:26:43;;;;;;;17.95;11.25;;;7.60;61.50;;;;;;5053839;28;20040;-74
2022/12/08 00:29:08;;;;;;;16.17;10.40;;;7.60;61.50;;;;;;5054480;28;20469;-73
2022/12/08 00:31:34;;;;;;;19.50;12.05;;;7.60;61.60;;;;;;5072574;28;20025;-73
2022/12/08 00:34:01;;;;;;;18.55;11.70;;;7.60;61.60;;;;;;5054348;28;20029;-73
2022/12/08 00:36:27;;;;;;;19.70;11.73;;;7.60;61.60;;;;;;5054543;28;20065;-74
2022/12/08 00:38:53;;;;;;;28.15;15.35;;;7.60;61.70;;;;;;5054769;28;20017;-73
2022/12/08 00:44:07;;;;;;;34.42;17.88;;;7.60;61.80;;;;;;5070021;28;20024;-73
2022/12/08 00:46:33;;;;;;;21.75;12.57;;;7.60;61.70;;;;;;5054603;28;20036;-74
2022/12/08 00:48:59;;;;;;;21.08;13.02;;;7.60;61.70;;;;;;5072690;28;20040;-74
2022/12/08 00:51:24;;;;;;;18.40;10.82;;;7.60;61.80;;;;;;5072179;28;20031;-73
2022/12/08 00:53:50;;;;;;;16.63;9.93;;;7.60;61.80;;;;;;5054670;28;20025;-73
2022/12/08 00:56:19;;;;;;;19.58;11.95;;;7.50;61.70;;;;;;5054631;28;20040;-73
2022/12/08 00:58:45;;;;;;;18.05;11.52;;;7.60;61.90;;;;;;5052505;28;23040;-73
2022/12/08 01:01:12;;;;;;;16.17;9.85;;;7.60;61.90;;;;;;5072328;28;20453;-73
2022/12/08 01:03:40;;;;;;;16.08;10.23;;;7.50;61.90;;;;;;5056392;28;20469;-73
2022/12/08 01:06:09;;;;;;;16.73;10.57;;;7.50;61.90;;;;;;5058337;28;20377;-74
2022/12/08 01:08:36;;;;;;;19.00;10.27;;;7.50;62.00;;;;;;5058267;28;20143;-74
2022/12/08 01:11:07;;;;;;;16.85;10.95;;;7.50;61.90;;;;;;5076164;28;20119;-74
2022/12/08 01:13:33;;;;;;;17.10;10.52;;;7.50;62.00;;;;;;5076398;28;20368;-73
2022/12/08 01:16:02;;;;;;;16.80;10.98;;;7.50;62.00;;;;;;5076100;28;20024;-74
2022/12/08 01:18:28;;;;;;;17.88;10.60;;;7.40;61.90;;;;;;5058023;28;20033;-73
2022/12/08 01:20:54;;;;;;;17.08;10.50;;;7.40;61.80;;;;;;5058015;28;20456;-74
2022/12/08 01:23:20;;;;;;;18.15;11.32;;;7.40;61.70;;;;;;5074691;28;20111;-73
2022/12/08 01:25:46;;;;;;;15.02;10.25;;;7.40;61.70;;;;;;5075965;28;20025;-73
2022/12/08 01:28:12;;;;;;;15.75;9.85;;;7.30;61.40;;;;;;5074563;28;20124;-73
2022/12/08 01:30:39;;;;;;;16.33;10.18;;;7.30;61.30;;;;;;5057875;28;20020;-73
2022/12/08 01:33:04;;;;;;;16.70;10.88;;;7.20;61.10;;;;;;5074794;28;20082;-73
2022/12/08 01:35:30;;;;;;;16.35;10.02;;;7.10;61.10;;;;;;5075495;28;20418;-73
2022/12/08 01:37:56;;;;;;;19.65;12.10;;;7.00;61.00;;;;;;5057804;28;20029;-73
2022/12/08 01:40:22;;;;;;;15.98;10.23;;;6.90;61.30;;;;;;5075636;28;20024;-73
2022/12/08 01:42:48;;;;;;;16.63;10.43;;;6.80;61.40;;;;;;5057687;28;20101;-73
2022/12/08 01:45:24;;;;;;;18.65;10.82;;;6.70;61.30;;;;;;5057567;28;20024;-73
2022/12/08 01:47:54;;;;;;;17.92;10.13;;;6.60;61.50;;;;;;5075065;28;20063;-73
2022/12/08 01:50:21;;;;;;;16.42;9.90;;;6.50;61.70;;;;;;5075070;28;20468;-73
2022/12/08 01:52:55;;;;;;;15.98;10.35;;;6.40;61.70;;;;;;5057444;28;20143;-73
2022/12/08 01:55:30;;;;;;;19.67;10.98;;;6.30;61.80;;;;;;5057395;28;20029;-73
2022/12/08 01:58:01;;;;;;;15.88;10.15;;;6.20;62.00;;;;;;5057279;28;20037;-73
2022/12/08 02:00:27;;;;;;;16.33;10.20;;;6.10;62.10;;;;;;5055212;28;20151;-73
2022/12/08 02:03:08;;;;;;;17.52;10.93;;;6.00;62.20;;;;;;5056371;28;20117;-73
2022/12/08 02:05:37;;;;;;;17.92;10.63;;;6.00;62.40;;;;;;5037417;28;20116;-73
2022/12/08 02:08:07;;;;;;;15.32;10.00;;;5.90;62.50;;;;;;5054628;28;20025;-73
2022/12/08 02:10:36;;;;;;;17.05;10.80;;;5.80;62.50;;;;;;5054970;28;20029;-73
2022/12/08 02:13:03;;;;;;;19.60;12.07;;;5.80;62.70;;;;;;5036872;28;20115;-73
2022/12/08 02:16:01;;;;;;;19.38;11.05;;;5.70;62.80;;;;;;5054073;28;20025;-73
2022/12/08 02:18:33;;;;;;;17.48;10.15;;;5.60;63.20;;;;;;5012230;28;20047;-73
2022/12/08 02:21:23;;;;;;;17.00;10.57;;;5.60;63.10;;;;;;5036929;28;20021;-73
2022/12/08 02:24:27;;;;;;;17.88;10.68;;;5.50;63.30;;;;;;5054730;28;20033;-73
2022/12/08 02:27:32;;;;;;;18.02;11.25;;;5.50;63.50;;;;;;5038392;28;20075;-73
2022/12/08 02:30:15;;;;;;;15.43;10.00;;;5.50;63.80;;;;;;5036713;28;20053;-73
2022/12/08 02:33:06;;;;;;;17.55;10.82;;;5.50;63.90;;;;;;5036694;28;20025;-73
2022/12/08 02:35:50;;;;;;;18.67;11.35;;;5.50;64.10;;;;;;5036385;28;20043;-73
2022/12/08 02:38:23;;;;;;;;;;;5.50;64.30;;;;;;5037063;28;20052;-73
2022/12/08 02:41:40;;;;;;;19.88;10.75;;;5.50;64.00;;;;;;5053154;28;19905;-73
2022/12/08 02:44:08;;;;;;;17.77;11.35;;;5.60;64.30;;;;;;4953810;29;20043;-73
2022/12/08 02:46:42;;;;;;;18.05;11.73;;;5.60;64.30;;;;;;4939946;28;20102;-73
2022/12/08 02:49:08;;;;;;;18.38;11.30;;;5.60;64.70;;;;;;4973236;28;20042;-73
2022/12/08 02:51:34;;;;;;;19.58;11.23;;;5.60;64.70;;;;;;4956861;28;20187;-73
2022/12/08 02:54:01;;;;;;;19.45;10.60;;;5.70;64.90;;;;;;4972968;28;20125;-73
2022/12/08 02:56:54;;;;;;;18.38;11.27;;;5.70;65.00;;;;;;4956780;28;20034;-74
2022/12/08 02:59:38;;;;;;;20.75;12.57;;;5.80;65.20;;;;;;4972593;28;20030;-73
2022/12/08 03:02:30;;;;;;;23.58;12.95;;;5.80;65.30;;;;;;4972674;28;20113;-73
2022/12/08 03:05:29;;;;;;;21.88;13.93;;;5.80;65.30;;;;;;4972556;28;20039;-73
2022/12/08 03:08:03;;;;;;;21.13;12.52;;;5.90;65.40;;;;;;4972518;28;20057;-73
2022/12/08 03:11:10;;;;;;;21.30;13.68;;;5.90;65.40;;;;;;4972613;28;20030;-73
2022/12/08 03:13:55;;;;;;;19.20;12.05;;;6.00;65.50;;;;;;4930874;29;20084;-73
2022/12/08 03:16:25;;;;;;;21.20;13.23;;;6.00;65.40;;;;;;4915282;29;20028;-73
2022/12/08 03:19:16;;;;;;;20.98;12.50;;;6.10;65.30;;;;;;4926868;28;20037;-73
2022/12/08 03:21:45;;;;;;;20.30;12.68;;;6.10;65.20;;;;;;4975718;28;20034;-73
2022/12/08 03:24:14;;;;;;;19.67;11.05;;;6.10;65.10;;;;;;4991923;28;20045;-73
2022/12/08 03:26:53;;;;;;;20.83;12.23;;;6.10;65.10;;;;;;4975473;28;20045;-73
2022/12/08 03:29:19;;;;;;;17.80;10.70;;;6.20;65.10;;;;;;4975604;28;20109;-73
2022/12/08 03:31:53;;;;;;;19.67;11.45;;;6.20;64.90;;;;;;4975412;28;20042;-73
2022/12/08 03:34:22;;;;;;;15.57;9.63;;;6.20;64.90;;;;;;4975187;28;20089;-73
2022/12/08 03:36:47;;;;;;;18.77;11.52;;;6.20;64.80;;;;;;4975227;28;20034;-72
2022/12/08 03:39:13;;;;;;;18.13;11.13;;;6.30;64.80;;;;;;4975243;28;20023;-73
2022/12/08 03:41:39;;;;;;;20.98;12.70;;;6.30;64.70;;;;;;4975294;28;20026;-73
2022/12/08 03:44:05;;;;;;;18.08;11.05;;;6.30;64.60;;;;;;4998903;28;20389;-73
2022/12/08 03:46:31;;;;;;;18.13;11.20;;;6.30;64.50;;;;;;5066597;28;20070;-73
2022/12/08 03:48:57;;;;;;;18.48;11.65;;;6.30;64.40;;;;;;5055210;28;20038;-73
2022/12/08 03:51:23;;;;;;;22.95;13.32;;;6.30;64.30;;;;;;5072938;28;20033;-73
2022/12/08 03:53:49;;;;;;;19.80;12.10;;;6.30;64.20;;;;;;5072917;28;20329;-73
2022/12/08 03:56:28;;;;;;;18.20;11.73;;;6.40;64.20;;;;;;5055148;28;20025;-73
2022/12/08 03:58:57;;;;;;;20.17;12.27;;;6.30;64.20;;;;;;5055076;28;20082;-73
2022/12/08 04:01:23;;;;;;;24.30;14.93;;;6.30;64.20;;;;;;5069442;28;20054;-72
2022/12/08 04:03:49;;;;;;;30.95;18.70;;;6.30;64.10;;;;;;5054651;28;20052;-73
2022/12/08 04:06:15;;;;;;;26.02;16.20;;;6.30;64.10;;;;;;5055235;28;20052;-73
2022/12/08 04:08:41;;;;;;;24.08;14.50;;;6.30;64.00;;;;;;5072954;28;20103;-73
2022/12/08 04:11:08;;;;;;;22.48;14.40;;;6.30;64.10;;;;;;5054947;28;20050;-73
2022/12/08 04:13:35;;;;;;;24.60;13.77;;;6.30;64.10;;;;;;5054936;28;20388;-73
2022/12/08 04:16:01;;;;;;;21.88;12.10;;;6.30;64.10;;;;;;5054757;28;20028;-73
2022/12/08 04:18:27;;;;;;;20.15;12.27;;;6.30;64.20;;;;;;5054895;28;20538;-73
2022/12/08 04:20:53;;;;;;;19.20;12.30;;;6.30;64.20;;;;;;5072924;28;20029;-73
2022/12/08 04:23:18;;;;;;;22.98;13.52;;;6.40;64.30;;;;;;5072593;28;20468;-73
2022/12/08 04:25:44;;;;;;;19.55;12.35;;;6.40;64.40;;;;;;5072896;28;20027;-73
2022/12/08 04:28:10;;;;;;;24.10;14.02;;;6.40;64.40;;;;;;5072691;28;20135;-73
2022/12/08 04:30:36;;;;;;;21.73;12.88;;;6.50;64.40;;;;;;5054731;28;20405;-73
2022/12/08 04:33:02;;;;;;;17.38;11.23;;;6.50;64.40;;;;;;5054526;28;20078;-73
2022/12/08 04:35:28;;;;;;;17.38;11.00;;;6.50;64.30;;;;;;5054528;28;20059;-73
2022/12/08 04:37:54;;;;;;;19.92;11.85;;;6.50;64.40;;;;;;5074180;28;20035;-73
2022/12/08 04:40:20;;;;;;;25.33;12.82;;;6.50;64.40;;;;;;5076361;28;20035;-73
2022/12/08 04:42:46;;;;;;;20.38;11.90;;;6.60;64.40;;;;;;5058603;28;20029;-73
2022/12/08 04:45:12;;;;;;;20.52;11.68;;;6.60;64.30;;;;;;5058368;28;20078;-72
2022/12/08 04:47:38;;;;;;;18.13;11.45;;;6.60;64.20;;;;;;5058386;28;20426;-73
2022/12/08 04:50:05;;;;;;;20.50;12.95;;;6.60;64.20;;;;;;5058495;28;20028;-73
2022/12/08 04:52:31;;;;;;;24.75;13.25;;;6.60;64.20;;;;;;5058441;28;20020;-73
2022/12/08 04:54:57;;;;;;;20.15;12.57;;;6.60;64.20;;;;;;5076354;28;20031;-73
2022/12/08 04:57:23;;;;;;;19.60;11.88;;;6.60;64.10;;;;;;5076369;28;20427;-73
2022/12/08 04:59:48;;;;;;;20.73;12.95;;;6.60;64.10;;;;;;5057846;28;20052;-73
2022/12/08 05:02:14;;;;;;;21.23;12.38;;;6.60;64.20;;;;;;5073156;28;20168;-73
2022/12/08 05:04:40;;;;;;;19.27;11.30;;;6.60;64.10;;;;;;5075660;28;20460;-73
2022/12/08 05:07:07;;;;;;;18.25;11.32;;;6.60;64.10;;;;;;5058103;28;20067;-73
2022/12/08 05:09:33;;;;;;;18.45;11.73;;;6.70;64.10;;;;;;5076157;28;20056;-73
2022/12/08 05:11:59;;;;;;;22.48;13.13;;;6.60;64.10;;;;;;5076069;28;20063;-73
2022/12/08 05:14:25;;;;;;;21.42;12.15;;;6.60;64.00;;;;;;5058081;28;20468;-73
2022/12/08 05:16:50;;;;;;;19.63;12.05;;;6.70;64.10;;;;;;5057667;28;20074;-72
2022/12/08 05:19:16;;;;;;;19.52;11.63;;;6.70;64.00;;;;;;5057978;28;20028;-72
2022/12/08 05:21:43;;;;;;;19.75;12.13;;;6.60;64.00;;;;;;5075817;28;20435;-73
2022/12/08 05:24:09;;;;;;;19.58;11.60;;;6.60;63.90;;;;;;5075559;28;20464;-72
2022/12/08 05:26:37;;;;;;;18.95;11.65;;;6.60;63.90;;;;;;5057796;28;20388;-73
2022/12/08 05:29:03;;;;;;;25.27;12.57;;;6.60;63.90;;;;;;5075688;28;20028;-73
2022/12/08 05:31:29;;;;;;;26.55;13.45;;;6.60;63.90;;;;;;5057772;28;20024;-73
2022/12/08 05:33:54;;;;;;;21.58;12.68;;;6.60;64.00;;;;;;5057418;28;20384;-73
2022/12/08 05:36:20;;;;;;;24.63;12.63;;;6.60;64.10;;;;;;5057283;28;20422;-73
2022/12/08 05:38:48;;;;;;;28.48;12.85;;;6.50;64.20;;;;;;5075348;28;20411;-73
2022/12/08 05:41:20;;;;;;;26.63;12.30;;;6.50;64.00;;;;;;5057564;28;20486;-73
2022/12/08 05:43:46;;;;;;;23.85;12.25;;;6.50;64.00;;;;;;5057353;28;20151;-73
2022/12/08 05:46:12;;;;;;;19.58;11.38;;;6.50;64.00;;;;;;5057426;28;20058;-73
2022/12/08 05:48:38;;;;;;;19.83;12.02;;;6.50;64.00;;;;;;5056676;28;20029;-72
2022/12/08 05:51:14;;;;;;;22.98;12.50;;;6.40;64.00;;;;;;5074474;28;20020;-73
2022/12/08 05:53:40;;;;;;;21.25;13.60;;;6.40;64.00;;;;;;5056966;28;20025;-73
2022/12/08 05:56:06;;;;;;;23.08;13.63;;;6.30;63.90;;;;;;5056940;28;20046;-73
2022/12/08 05:58:32;;;;;;;23.15;13.98;;;6.30;63.90;;;;;;5075190;28;20032;-73
2022/12/08 06:01:01;;;;;;;22.92;12.80;;;6.30;63.90;;;;;;5056779;28;20090;-73
2022/12/08 06:03:28;;;;;;;18.63;11.45;;;6.20;63.90;;;;;;5071074;28;20082;-73
2022/12/08 06:05:53;;;;;;;21.83;12.50;;;6.20;63.90;;;;;;5057078;28;20418;-73
2022/12/08 06:08:19;;;;;;;19.63;11.75;;;6.20;63.90;;;;;;5056960;28;20032;-73
2022/12/08 06:10:46;;;;;;;20.75;12.25;;;6.10;63.90;;;;;;5074930;28;20028;-73
2022/12/08 06:13:12;;;;;;;20.98;13.07;;;6.10;63.80;;;;;;5056627;28;20031;-73
2022/12/08 06:15:39;;;;;;;25.52;15.18;;;6.00;63.80;;;;;;5074920;28;20029;-73
2022/12/08 06:18:06;;;;;;;25.45;14.35;;;6.00;63.90;;;;;;5056805;28;20123;-73
2022/12/08 06:20:31;;;;;;;25.40;15.07;;;6.00;64.00;;;;;;5056852;28;20476;-73
2022/12/08 06:23:00;;;;;;;22.92;14.05;;;5.90;64.10;;;;;;5056702;28;20161;-73
2022/12/08 06:25:26;;;;;;;22.88;13.75;;;5.90;64.30;;;;;;5056704;28;20028;-73
2022/12/08 06:27:52;;;;;;;22.85;13.98;;;5.90;64.50;;;;;;5056599;28;20092;-73
2022/12/08 06:30:18;;;;;;;24.63;14.63;;;5.90;64.60;;;;;;5056686;28;20029;-73
2022/12/08 06:32:44;;;;;;;23.40;13.15;;;5.80;65.40;;;;;;5056675;28;20037;-72
2022/12/08 06:35:10;;;;;;;22.45;13.55;;;5.80;64.70;;;;;;5074130;28;20029;-72
2022/12/08 06:37:36;;;;;;;27.80;14.60;;;5.80;64.80;;;;;;5074361;28;20115;-73
2022/12/08 06:40:02;;;;;;;25.00;14.73;;;5.80;65.00;;;;;;5074402;28;20032;-73
2022/12/08 06:42:43;;;;;;;25.40;15.27;;;5.80;65.10;;;;;;5056237;28;20028;-73
2022/12/08 06:45:10;;;;;;;20.67;12.10;;;5.80;65.20;;;;;;5074336;28;20027;-73
2022/12/08 06:47:36;;;;;;;24.05;12.50;;;5.80;65.20;;;;;;5056249;28;20047;-73
2022/12/08 06:50:03;;;;;;;28.95;15.15;;;5.80;65.20;;;;;;5074129;28;20033;-73
2022/12/08 06:52:28;;;;;;;28.63;16.35;;;5.80;65.30;;;;;;5056140;28;20055;-73
2022/12/08 06:54:54;;;;;;;25.75;15.63;;;5.80;65.40;;;;;;5073777;28;20044;-72
2022/12/08 06:57:20;;;;;;;23.92;14.23;;;5.80;65.60;;;;;;5074053;28;20107;-73
2022/12/08 06:59:46;;;;;;;23.33;13.88;;;5.80;65.60;;;;;;5073797;28;20048;-73
2022/12/08 07:02:12;;;;;;;23.77;14.55;;;5.80;65.70;;;;;;5073678;28;20391;-73
2022/12/08 07:04:37;;;;;;;23.60;14.20;;;5.80;65.60;;;;;;5068797;28;20067;-73
2022/12/08 07:07:03;;;;;;;28.48;14.77;;;5.80;65.70;;;;;;5073666;28;20032;-73
2022/12/08 07:09:29;;;;;;;21.60;13.27;;;5.80;65.70;;;;;;5056055;28;20024;-73
2022/12/08 07:11:55;;;;;;;24.38;13.98;;;5.80;65.70;;;;;;5055974;28;20020;-73
2022/12/08 07:14:23;;;;;;;24.83;15.02;;;5.80;65.70;;;;;;5072577;28;20041;-73
2022/12/08 07:16:50;;;;;;;24.70;14.35;;;5.80;65.70;;;;;;5055968;28;20039;-73
2022/12/08 07:19:16;;;;;;;24.50;13.52;;;5.80;65.90;;;;;;5073809;28;20433;-73
2022/12/08 07:21:42;;;;;;;24.92;14.10;;;5.90;65.90;;;;;;5073690;28;20138;-73
2022/12/08 07:24:08;;;;;;;23.35;12.25;;;5.90;65.90;;;;;;5055741;28;20497;-73
2022/12/08 07:26:34;;;;;;;23.92;13.20;;;5.90;65.90;;;;;;5055516;28;20033;-73
2022/12/08 07:29:06;;;;;;;23.45;14.90;;;5.90;65.90;;;;;;5055630;28;20032;-73
2022/12/08 07:31:33;;;;;;;19.52;12.52;;;6.00;66.00;;;;;;5055633;28;20391;-73
2022/12/08 07:33:58;;;;;;;22.85;12.95;;;6.00;66.00;;;;;;5072983;28;20028;-73
2022/12/08 07:36:25;;;;;;;21.10;13.65;;;6.00;66.10;;;;;;5071905;28;20163;-73
2022/12/08 07:38:54;;;;;;;22.90;12.98;;;6.10;66.20;;;;;;5055592;28;20032;-73
2022/12/08 07:41:24;;;;;;;20.85;13.63;;;6.10;66.10;;;;;;5054804;28;20079;-73
2022/12/08 07:43:50;;;;;;;21.45;13.55;;;6.20;66.00;;;;;;5035552;28;20473;-73
2022/12/08 07:46:24;;;;;;;21.23;13.50;;;6.20;65.90;;;;;;5053452;28;20380;-73
2022/12/08 07:48:51;;;;;;;;;;;6.20;65.70;;;;;;5053612;28;20083;-73
2022/12/08 07:51:17;;;;;;;22.67;13.45;;;6.30;65.60;;;;;;5053094;28;20323;-73
2022/12/08 07:53:45;;;;;;;28.55;16.40;;;6.30;65.20;;;;;;5035499;28;20079;-73
2022/12/08 07:56:12;;;;;;;32.55;19.33;;;6.30;65.20;;;;;;5052316;28;20061;-73
2022/12/08 07:58:39;;;;;;;32.70;18.60;;;6.20;65.20;;;;;;5053047;28;20028;-73
2022/12/08 08:01:05;;;;;;;29.60;18.00;;;6.20;65.40;;;;;;5051541;28;20055;-73
2022/12/08 08:03:31;;;;;;;29.02;16.75;;;6.20;65.50;;;;;;5036419;28;20116;-74
2022/12/08 08:06:04;;;;;;;29.17;17.52;;;6.20;65.50;;;;;;5040194;28;20481;-73
2022/12/08 08:08:30;;;;;;;26.85;16.27;;;6.20;65.50;;;;;;5035001;28;20499;-73
2022/12/08 08:10:57;;;;;;;30.42;16.13;;;6.20;65.60;;;;;;5035102;28;20029;-72
2022/12/08 08:13:23;;;;;;;27.48;14.93;;;6.20;65.70;;;;;;5034403;28;20029;-72
2022/12/08 08:15:49;;;;;;;25.10;14.80;;;6.20;65.70;;;;;;5035062;28;20366;-73
2022/12/08 08:18:15;;;;;;;25.38;15.20;;;6.20;65.80;;;;;;5049301;28;20033;-73
2022/12/08 08:20:43;;;;;;;31.42;17.52;;;6.30;66.00;;;;;;5072963;28;20086;-72
2022/12/08 08:23:09;;;;;;;28.40;16.00;;;6.20;66.10;;;;;;5055013;28;20029;-72
2022/12/08 08:25:35;;;;;;;24.88;15.48;;;6.30;66.20;;;;;;5054894;28;20032;-72
2022/12/08 08:28:03;;;;;;;27.60;16.38;;;6.30;66.30;;;;;;5072582;28;20033;-73
2022/12/08 08:30:29;;;;;;;28.75;16.83;;;6.30;66.40;;;;;;5072682;28;20023;-73
2022/12/08 08:32:59;;;;;;;30.88;16.73;;;6.30;66.40;;;;;;5054884;28;20029;-73
2022/12/08 08:35:25;;;;;;;27.23;15.95;;;6.30;66.50;;;;;;5072523;28;20033;-73
2022/12/08 08:37:50;;;;;;;25.38;15.60;;;6.40;66.50;;;;;;5072673;28;20024;-73
2022/12/08 08:40:17;;;;;;;29.40;16.88;;;6.40;66.50;;;;;;5072653;28;20428;-72
2022/12/08 08:42:43;;;;;;;24.15;14.57;;;6.40;66.50;;;;;;5046068;28;20033;-71
2022/12/08 08:45:09;;;;;;;26.08;16.17;;;6.40;66.40;;;;;;5052700;28;20458;-72
2022/12/08 08:47:35;;;;;;;26.92;16.52;;;6.50;66.40;;;;;;5034653;28;20040;-73
2022/12/08 08:50:01;;;;;;;27.55;16.67;;;6.50;66.50;;;;;;5036286;28;20029;-72
2022/12/08 08:52:27;;;;;;;28.35;17.08;;;6.60;66.60;;;;;;5054288;28;20036;-73
2022/12/08 08:54:56;;;;;;;28.48;17.25;;;6.60;66.50;;;;;;5054430;28;20035;-73
2022/12/08 08:57:22;;;;;;;27.33;16.83;;;6.60;66.30;;;;;;5054041;28;20066;-74
2022/12/08 08:59:47;;;;;;;26.20;16.67;;;6.60;66.30;;;;;;5053996;28;20041;-73
2022/12/08 09:02:18;;;;;;;28.70;17.38;;;6.70;66.30;;;;;;5066627;28;20024;-74
2022/12/08 09:04:44;;;;;;;26.67;16.40;;;6.70;66.20;;;;;;5068056;28;20053;-73
2022/12/08 09:07:10;;;;;;;26.75;16.90;;;6.70;67.00;;;;;;5067171;28;20044;-73
2022/12/08 09:09:37;;;;;;;29.52;17.35;;;6.70;66.20;;;;;;5054087;28;20119;-73
2022/12/08 09:12:03;;;;;;;27.33;15.77;;;6.80;66.20;;;;;;5054299;28;20016;-73
2022/12/08 09:14:29;;;;;;;27.55;16.65;;;6.80;66.10;;;;;;5071998;28;20055;-73
2022/12/08 09:16:58;;;;;;;28.50;17.17;;;6.90;66.10;;;;;;5054223;28;20052;-74
2022/12/08 09:19:26;;;;;;;30.38;18.20;;;6.90;66.20;;;;;;5071773;28;20376;-74
2022/12/08 09:21:52;;;;;;;29.90;18.30;;;6.90;66.10;;;;;;5072399;28;20161;-73
2022/12/08 09:24:18;;;;;;;30.55;17.92;;;7.00;66.00;;;;;;5056181;28;20123;-74
2022/12/08 09:26:45;;;;;;;28.67;17.92;;;7.00;66.00;;;;;;5057950;28;20033;-73
2022/12/08 09:29:13;;;;;;;34.75;17.85;;;7.00;65.90;;;;;;5057215;28;20024;-74
2022/12/08 09:31:39;;;;;;;30.58;17.90;;;7.10;65.90;;;;;;5075491;28;20062;-74
2022/12/08 09:34:05;;;;;;;31.83;18.98;;;7.20;65.90;;;;;;5074741;28;20021;-74
2022/12/08 09:36:31;;;;;;;33.22;18.70;;;7.20;65.70;;;;;;5057386;28;20419;-74
2022/12/08 09:38:57;;;;;;;30.30;17.70;;;7.30;65.60;;;;;;5075745;28;20028;-74
2022/12/08 09:41:34;;;;;;;29.52;17.38;;;7.30;65.50;;;;;;5057274;28;20039;-74
2022/12/08 09:44:37;;;;;;;28.67;17.00;;;7.40;65.50;;;;;;5057413;28;20020;-74
2022/12/08 09:47:18;;;;;;;30.38;17.73;;;7.40;65.30;;;;;;5069638;28;20111;-74
2022/12/08 09:50:03;;;;;;;29.40;17.77;;;7.50;65.10;;;;;;5057127;28;20482;-74
2022/12/08 09:52:37;;;;;;;37.85;18.52;;;7.60;64.80;;;;;;5057567;28;20456;-74
2022/12/08 09:55:36;;;;;;;25.60;16.63;;;7.60;64.70;;;;;;5075338;28;20032;-74
2022/12/08 09:58:14;;;;;;;29.83;18.13;;;7.70;64.80;;;;;;5053481;28;20403;-74
2022/12/08 10:00:43;;;;;;;32.30;18.65;;;7.70;64.70;;;;;;5056891;28;20082;-74
2022/12/08 10:03:11;;;;;;;28.13;16.73;;;7.80;64.30;;;;;;5074928;28;20025;-74
2022/12/08 10:05:45;;;;;;;27.85;16.95;;;7.80;64.10;;;;;;5044052;28;20028;-75
2022/12/08 10:08:29;;;;;;;39.08;20.10;;;7.90;63.90;;;;;;5056669;28;20070;-73
2022/12/08 10:10:57;;;;;;;;;;;8.00;63.80;;;;;;5057384;28;20028;-73
2022/12/08 10:13:41;;;;;;;28.73;18.38;;;8.00;64.00;;;;;;5073809;28;20003;-74
2022/12/08 10:16:27;;;;;;;29.73;17.08;;;8.00;62.70;;;;;;5056956;28;20560;-73
2022/12/08 10:19:19;;;;;;;32.30;17.30;;;8.10;62.50;;;;;;5075249;28;20066;-74
2022/12/08 10:21:46;;;;;;;26.15;15.25;;;8.10;62.20;;;;;;5074226;28;20032;-74
2022/12/08 10:24:33;;;;;;;25.15;15.38;;;8.10;62.10;;;;;;5056673;28;20035;-74
2022/12/08 10:27:37;;;;;;;25.70;17.08;;;8.10;61.90;;;;;;5110844;27;20105;-71
2022/12/08 10:30:15;;;;;;;27.40;15.07;;;8.20;61.80;;;;;;5090570;28;20127;-71
2022/12/08 10:32:45;;;;;;;19.15;12.98;;;8.20;61.80;;;;;;5090356;28;20027;-68
2022/12/08 10:35:14;;;;;;;22.58;12.25;;;8.20;61.30;;;;;;5075355;28;20033;-68
2022/12/08 10:37:40;;;;;;;17.77;11.90;;;8.20;61.00;;;;;;5069733;28;20017;-72
2022/12/08 10:40:13;;;;;;;21.13;13.18;;;8.30;61.20;;;;;;5069665;28;20013;-70
2022/12/08 10:42:46;;;;;;;20.27;12.48;;;8.30;61.10;;;;;;5069805;28;20103;-72
2022/12/08 10:45:42;;;;;;;21.08;13.20;;;8.30;61.00;;;;;;5069612;28;20036;-70
2022/12/08 10:48:22;;;;;;;21.85;13.50;;;8.40;61.10;;;;;;5069570;28;20033;-69
2022/12/08 10:50:51;;;;;;;18.50;12.15;;;8.40;60.80;;;;;;5077586;28;20023;-71
2022/12/08 10:53:30;;;;;;;18.55;11.52;;;8.50;60.90;;;;;;5089681;28;20028;-70
2022/12/08 10:56:02;;;;;;;19.75;12.13;;;8.50;60.90;;;;;;5089530;28;20020;-69
2022/12/08 10:58:45;;;;;;;22.75;13.55;;;8.60;60.60;;;;;;5089627;28;20103;-70
2022/12/08 11:01:25;;;;;;;23.37;12.97;;;8.70;60.50;;;;;;5089552;28;20020;-66
2022/12/08 11:03:55;;;;;;;21.13;13.52;;;8.80;60.50;;;;;;5086418;28;20042;-70
2022/12/08 11:06:42;;;;;;;23.52;13.05;;;8.90;60.00;;;;;;5068991;28;20025;-70
2022/12/08 11:09:17;;;;;;;23.73;14.18;;;8.90;59.60;;;;;;5069093;28;20025;-68
2022/12/08 11:12:05;;;;;;;20.63;13.48;;;9.00;59.40;;;;;;5049427;28;20112;-70
2022/12/08 11:14:52;;;;;;;20.58;13.40;;;9.00;59.30;;;;;;5048975;28;20014;-66
2022/12/08 11:17:21;;;;;;;23.30;14.93;;;9.10;59.40;;;;;;5048422;28;20065;-69
2022/12/08 11:20:18;;;;;;;23.10;14.18;;;9.20;59.20;;;;;;5048949;28;20029;-67
2022/12/08 11:22:49;;;;;;;21.08;13.70;;;9.20;59.20;;;;;;5048079;28;20033;-70
2022/12/08 11:25:26;;;;;;;22.27;13.77;;;9.20;59.20;;;;;;5047827;28;20083;-70
2022/12/08 11:27:56;;;;;;;20.77;13.27;;;9.30;59.00;;;;;;5028925;28;20391;-70
2022/12/08 11:30:24;;;;;;;20.50;12.75;;;9.30;58.70;;;;;;5028892;28;20100;-67
2022/12/08 11:32:55;;;;;;;21.60;12.68;;;9.30;58.40;;;;;;5028836;28;20033;-67
2022/12/08 11:35:30;;;;;;;18.48;11.98;;;9.30;58.30;;;;;;5028752;28;20084;-70
2022/12/08 11:38:23;;;;;;;19.65;11.15;;;9.30;58.00;;;;;;5020728;28;20092;-73
2022/12/08 11:40:57;;;;;;;16.85;11.10;;;9.30;58.20;;;;;;5015534;28;20022;-71
2022/12/08 11:43:38;;;;;;;18.42;10.93;;;9.30;58.20;;;;;;5015389;28;20022;-69
2022/12/08 11:46:18;;;;;;;17.40;10.40;;;9.30;57.60;;;;;;5015333;28;20029;-71
2022/12/08 11:48:53;;;;;;;15.95;9.05;;;9.30;57.40;;;;;;5015409;28;20029;-67
2022/12/08 11:51:32;;;;;;;14.70;9.50;;;9.30;57.30;;;;;;5022773;28;20096;-70
2022/12/08 11:54:15;;;;;;;15.65;9.10;;;9.30;57.30;;;;;;5035080;28;20070;-68
2022/12/08 11:56:46;;;;;;;16.17;8.73;;;9.30;57.30;;;;;;5017605;28;20029;-70
2022/12/08 11:59:40;;;;;;;13.00;8.55;;;9.30;57.10;;;;;;5034951;28;20029;-72
2022/12/08 12:02:20;;;;;;;11.32;7.88;;;9.30;56.50;;;;;;5017218;28;20029;-71
2022/12/08 12:04:54;;;;;;;12.52;8.02;;;9.30;56.30;;;;;;5025536;28;20066;-70
2022/12/08 12:07:51;;;;;;;13.73;8.68;;;9.30;56.10;;;;;;5015046;28;20026;-70
2022/12/08 12:10:34;;;;;;;14.52;8.48;;;9.40;56.40;;;;;;4997263;28;20030;-70
2022/12/08 12:13:15;;;;;;;12.27;8.25;;;9.40;56.00;;;;;;5014905;28;20022;-67
2022/12/08 12:16:19;;;;;;;15.43;8.82;;;9.40;56.30;;;;;;5014859;28;20083;-70
2022/12/08 12:18:50;;;;;;;15.53;8.73;;;9.40;56.10;;;;;;5014838;28;20475;-70
2022/12/08 12:21:25;;;;;;;14.15;8.75;;;9.40;55.90;;;;;;5014715;28;20267;-69
2022/12/08 12:23:55;;;;;;;17.98;9.27;;;9.40;55.50;;;;;;5014740;28;20026;-67
2022/12/08 12:26:28;;;;;;;15.73;9.13;;;9.40;55.70;;;;;;5012970;28;20046;-71
2022/12/08 12:28:56;;;;;;;13.80;8.65;;;9.40;55.60;;;;;;5032864;28;20025;-67
2022/12/08 12:31:33;;;;;;;12.82;8.40;;;9.40;55.50;;;;;;5034156;28;20470;-72
2022/12/08 12:34:10;;;;;;;16.65;9.50;;;9.40;55.30;;;;;;5034099;28;20108;-67
2022/12/08 12:36:53;;;;;;;14.52;8.85;;;9.40;55.50;;;;;;5034184;28;20027;-67
2022/12/08 12:39:23;;;;;;;11.52;8.32;;;9.40;55.60;;;;;;5034251;28;20429;-70
2022/12/08 12:41:56;;;;;;;16.00;9.15;;;9.40;55.60;;;;;;5034199;28;20022;-72
2022/12/08 12:44:36;;;;;;;15.43;9.27;;;9.40;55.50;;;;;;5034160;28;20025;-67
2022/12/08 12:47:07;;;;;;;13.38;9.25;;;9.40;55.40;;;;;;5033942;28;20049;-68
2022/12/08 12:49:39;;;;;;;14.25;8.90;;;9.40;55.50;;;;;;5032988;28;20096;-72
2022/12/08 12:52:14;;;;;;;16.88;9.40;;;9.40;55.50;;;;;;5040793;28;20013;-69
2022/12/08 12:55:08;;;;;;;17.20;9.98;;;9.40;55.40;;;;;;5053773;28;20109;-71
2022/12/08 12:57:37;;;;;;;16.15;9.73;;;9.40;55.60;;;;;;5043404;28;20021;-70
2022/12/08 13:00:03;;;;;;;14.63;9.23;;;9.40;55.70;;;;;;5053655;28;20052;-71
2022/12/08 13:02:35;;;;;;;16.40;9.55;;;9.40;56.00;;;;;;5053689;28;20072;-71
2022/12/08 13:05:12;;;;;;;13.98;9.48;;;9.40;55.80;;;;;;5042613;28;20010;-72